sensor_id;sensor_type;location;lat;lon;timestamp;pressure;altitude;pressure_sealevel;temperature
45393;BMP280;31129;44.810;10.334;2023-07-24T00:01:00;100551.69;;;27.22
45393;BMP280;31129;44.810;10.334;2023-07-24T00:03:25;100543.91;;;27.01
45393;BMP280;31129;44.810;10.334;2023-07-24T00:05:50;100543.06;;;26.89
45393;BMP280;31129;44.810;10.334;2023-07-24T00:08:16;100540.66;;;26.85
45393;BMP280;31129;44.810;10.334;2023-07-24T00:10:41;100529.47;;;26.85
45393;BMP280;31129;44.810;10.334;2023-07-24T00:13:07;100523.72;;;26.83
45393;BMP280;31129;44.810;10.334;2023-07-24T00:15:32;100534.66;;;26.89
45393;BMP280;31129;44.810;10.334;2023-07-24T00:17:58;100543.34;;;26.83
45393;BMP280;31129;44.810;10.334;2023-07-24T00:20:23;100540.88;;;26.87
45393;BMP280;31129;44.810;10.334;2023-07-24T00:22:50;100534.66;;;26.79
45393;BMP280;31129;44.810;10.334;2023-07-24T00:25:15;100531.72;;;26.77
45393;BMP280;31129;44.810;10.334;2023-07-24T00:27:41;100528.59;;;26.83
45393;BMP280;31129;44.810;10.334;2023-07-24T00:30:07;100525.97;;;26.75
45393;BMP280;31129;44.810;10.334;2023-07-24T00:32:32;100513.44;;;26.76
45393;BMP280;31129;44.810;10.334;2023-07-24T00:34:58;100517.59;;;26.75
45393;BMP280;31129;44.810;10.334;2023-07-24T00:37:24;100504.44;;;26.68
45393;BMP280;31129;44.810;10.334;2023-07-24T00:39:49;100506.22;;;26.54
45393;BMP280;31129;44.810;10.334;2023-07-24T00:42:15;100510.66;;;26.47
45393;BMP280;31129;44.810;10.334;2023-07-24T00:44:40;100508.91;;;26.42
45393;BMP280;31129;44.810;10.334;2023-07-24T00:47:06;100506.97;;;26.35
45393;BMP280;31129;44.810;10.334;2023-07-24T00:49:31;100507.09;;;26.37
45393;BMP280;31129;44.810;10.334;2023-07-24T00:51:57;100505.63;;;26.36
45393;BMP280;31129;44.810;10.334;2023-07-24T00:54:26;100509.31;;;26.48
45393;BMP280;31129;44.810;10.334;2023-07-24T00:56:54;100518.59;;;26.32
45393;BMP280;31129;44.810;10.334;2023-07-24T00:59:20;100522.25;;;26.15
45393;BMP280;31129;44.810;10.334;2023-07-24T01:01:47;100534.75;;;26.23
45393;BMP280;31129;44.810;10.334;2023-07-24T01:04:13;100532.38;;;26.10
45393;BMP280;31129;44.810;10.334;2023-07-24T01:06:39;100536.13;;;26.22
45393;BMP280;31129;44.810;10.334;2023-07-24T01:09:05;100533.72;;;26.00
45393;BMP280;31129;44.810;10.334;2023-07-24T01:11:40;100547.44;;;26.15
45393;BMP280;31129;44.810;10.334;2023-07-24T01:14:24;100543.97;;;25.88
45393;BMP280;31129;44.810;10.334;2023-07-24T01:16:54;100534.16;;;25.96
45393;BMP280;31129;44.810;10.334;2023-07-24T01:27:46;100520.50;;;26.19
45393;BMP280;31129;44.810;10.334;2023-07-24T01:30:15;100519.91;;;26.31
45393;BMP280;31129;44.810;10.334;2023-07-24T01:32:41;100514.47;;;26.13
45393;BMP280;31129;44.810;10.334;2023-07-24T01:35:07;100502.09;;;26.16
45393;BMP280;31129;44.810;10.334;2023-07-24T01:37:35;100495.88;;;26.08
45393;BMP280;31129;44.810;10.334;2023-07-24T01:40:02;100496.72;;;25.92
45393;BMP280;31129;44.810;10.334;2023-07-24T01:42:28;100495.09;;;25.89
45393;BMP280;31129;44.810;10.334;2023-07-24T01:44:54;100480.28;;;25.96
45393;BMP280;31129;44.810;10.334;2023-07-24T01:47:21;100475.28;;;26.13
45393;BMP280;31129;44.810;10.334;2023-07-24T01:49:48;100467.16;;;25.98
45393;BMP280;31129;44.810;10.334;2023-07-24T01:52:13;100465.97;;;26.01
45393;BMP280;31129;44.810;10.334;2023-07-24T01:54:39;100471.28;;;25.97
45393;BMP280;31129;44.810;10.334;2023-07-24T01:57:05;100473.56;;;25.72
45393;BMP280;31129;44.810;10.334;2023-07-24T01:59:30;100469.03;;;25.67
45393;BMP280;31129;44.810;10.334;2023-07-24T02:01:56;100446.94;;;25.71
45393;BMP280;31129;44.810;10.334;2023-07-24T02:04:21;100443.72;;;25.84
45393;BMP280;31129;44.810;10.334;2023-07-24T02:06:49;100420.75;;;25.76
45393;BMP280;31129;44.810;10.334;2023-07-24T02:09:15;100410.75;;;25.92
45393;BMP280;31129;44.810;10.334;2023-07-24T02:11:41;100393.97;;;25.92
45393;BMP280;31129;44.810;10.334;2023-07-24T02:14:06;100394.09;;;25.94
45393;BMP280;31129;44.810;10.334;2023-07-24T02:16:32;100407.09;;;25.99
45393;BMP280;31129;44.810;10.334;2023-07-24T02:18:58;100390.00;;;25.86
45393;BMP280;31129;44.810;10.334;2023-07-24T02:21:23;100379.84;;;25.81
45393;BMP280;31129;44.810;10.334;2023-07-24T02:23:49;100383.63;;;25.56
45393;BMP280;31129;44.810;10.334;2023-07-24T02:26:14;100384.22;;;25.55
45393;BMP280;31129;44.810;10.334;2023-07-24T02:28:40;100388.44;;;25.37
45393;BMP280;31129;44.810;10.334;2023-07-24T02:31:05;100388.69;;;25.31
45393;BMP280;31129;44.810;10.334;2023-07-24T02:33:31;100395.34;;;25.36
45393;BMP280;31129;44.810;10.334;2023-07-24T02:35:56;100396.97;;;25.39
45393;BMP280;31129;44.810;10.334;2023-07-24T02:38:22;100398.00;;;25.43
45393;BMP280;31129;44.810;10.334;2023-07-24T02:40:47;100399.81;;;25.58
45393;BMP280;31129;44.810;10.334;2023-07-24T02:43:13;100421.72;;;25.61
45393;BMP280;31129;44.810;10.334;2023-07-24T02:45:39;100421.75;;;25.71
45393;BMP280;31129;44.810;10.334;2023-07-24T02:48:05;100436.03;;;25.75
45393;BMP280;31129;44.810;10.334;2023-07-24T02:50:30;100438.84;;;25.75
45393;BMP280;31129;44.810;10.334;2023-07-24T02:52:56;100453.34;;;25.54
45393;BMP280;31129;44.810;10.334;2023-07-24T02:55:21;100454.97;;;25.57
45393;BMP280;31129;44.810;10.334;2023-07-24T02:57:47;100466.13;;;25.48
45393;BMP280;31129;44.810;10.334;2023-07-24T03:00:13;100474.66;;;25.40
45393;BMP280;31129;44.810;10.334;2023-07-24T03:02:39;100470.81;;;25.45
45393;BMP280;31129;44.810;10.334;2023-07-24T03:05:04;100476.34;;;25.26
45393;BMP280;31129;44.810;10.334;2023-07-24T03:07:31;100482.75;;;25.19
45393;BMP280;31129;44.810;10.334;2023-07-24T03:09:57;100482.97;;;25.04
45393;BMP280;31129;44.810;10.334;2023-07-24T03:12:22;100493.16;;;25.09
45393;BMP280;31129;44.810;10.334;2023-07-24T03:14:48;100504.78;;;25.15
45393;BMP280;31129;44.810;10.334;2023-07-24T03:17:13;100508.59;;;25.10
45393;BMP280;31129;44.810;10.334;2023-07-24T03:19:40;100509.72;;;25.24
45393;BMP280;31129;44.810;10.334;2023-07-24T03:22:06;100496.03;;;25.01
45393;BMP280;31129;44.810;10.334;2023-07-24T03:24:32;100461.16;;;25.19
45393;BMP280;31129;44.810;10.334;2023-07-24T03:26:57;100432.03;;;25.13
45393;BMP280;31129;44.810;10.334;2023-07-24T03:29:23;100418.91;;;25.06
45393;BMP280;31129;44.810;10.334;2023-07-24T03:31:49;100413.47;;;25.08
45393;BMP280;31129;44.810;10.334;2023-07-24T03:34:15;100413.41;;;24.98
45393;BMP280;31129;44.810;10.334;2023-07-24T03:36:40;100423.78;;;24.88
45393;BMP280;31129;44.810;10.334;2023-07-24T03:39:11;100429.34;;;25.05
45393;BMP280;31129;44.810;10.334;2023-07-24T03:41:38;100424.78;;;25.10
45393;BMP280;31129;44.810;10.334;2023-07-24T03:44:04;100418.06;;;25.13
45393;BMP280;31129;44.810;10.334;2023-07-24T03:46:31;100416.19;;;25.25
45393;BMP280;31129;44.810;10.334;2023-07-24T03:48:57;100408.84;;;25.29
45393;BMP280;31129;44.810;10.334;2023-07-24T03:51:22;100396.66;;;25.44
45393;BMP280;31129;44.810;10.334;2023-07-24T03:53:48;100405.22;;;25.46
45393;BMP280;31129;44.810;10.334;2023-07-24T03:56:13;100415.13;;;25.57
45393;BMP280;31129;44.810;10.334;2023-07-24T03:58:39;100424.97;;;25.58
45393;BMP280;31129;44.810;10.334;2023-07-24T04:01:05;100424.63;;;25.44
45393;BMP280;31129;44.810;10.334;2023-07-24T04:03:30;100412.50;;;25.78
45393;BMP280;31129;44.810;10.334;2023-07-24T04:05:56;100416.03;;;25.69
45393;BMP280;31129;44.810;10.334;2023-07-24T04:08:21;100431.81;;;25.38
45393;BMP280;31129;44.810;10.334;2023-07-24T04:10:47;100449.34;;;25.11
45393;BMP280;31129;44.810;10.334;2023-07-24T04:13:12;100443.81;;;24.94
45393;BMP280;31129;44.810;10.334;2023-07-24T04:15:38;100446.66;;;24.77
45393;BMP280;31129;44.810;10.334;2023-07-24T04:18:04;100454.25;;;24.32
45393;BMP280;31129;44.810;10.334;2023-07-24T04:20:30;100468.25;;;24.76
45393;BMP280;31129;44.810;10.334;2023-07-24T04:22:56;100498.94;;;24.08
45393;BMP280;31129;44.810;10.334;2023-07-24T04:25:21;100510.44;;;23.87
45393;BMP280;31129;44.810;10.334;2023-07-24T04:27:47;100519.94;;;23.84
45393;BMP280;31129;44.810;10.334;2023-07-24T04:30:12;100534.47;;;24.24
45393;BMP280;31129;44.810;10.334;2023-07-24T04:32:38;100591.56;;;24.23
45393;BMP280;31129;44.810;10.334;2023-07-24T04:35:03;100597.88;;;24.49
45393;BMP280;31129;44.810;10.334;2023-07-24T04:37:29;100591.13;;;24.34
45393;BMP280;31129;44.810;10.334;2023-07-24T04:39:55;100578.66;;;24.35
45393;BMP280;31129;44.810;10.334;2023-07-24T04:42:21;100561.50;;;24.39
45393;BMP280;31129;44.810;10.334;2023-07-24T04:44:46;100518.13;;;25.07
45393;BMP280;31129;44.810;10.334;2023-07-24T04:47:12;100574.41;;;24.86
45393;BMP280;31129;44.810;10.334;2023-07-24T04:49:37;100605.59;;;24.16
45393;BMP280;31129;44.810;10.334;2023-07-24T04:52:04;100641.84;;;24.16
45393;BMP280;31129;44.810;10.334;2023-07-24T04:54:29;100682.41;;;24.09
45393;BMP280;31129;44.810;10.334;2023-07-24T04:56:55;100668.03;;;24.20
45393;BMP280;31129;44.810;10.334;2023-07-24T04:59:20;100600.06;;;24.75
45393;BMP280;31129;44.810;10.334;2023-07-24T05:01:46;100610.28;;;24.72
45393;BMP280;31129;44.810;10.334;2023-07-24T05:04:11;100589.84;;;24.53
45393;BMP280;31129;44.810;10.334;2023-07-24T05:06:37;100504.63;;;24.69
45393;BMP280;31129;44.810;10.334;2023-07-24T05:09:03;100359.09;;;24.82
45393;BMP280;31129;44.810;10.334;2023-07-24T05:11:29;100236.28;;;25.01
45393;BMP280;31129;44.810;10.334;2023-07-24T05:13:54;100183.47;;;24.76
45393;BMP280;31129;44.810;10.334;2023-07-24T05:16:20;100130.69;;;24.61
45393;BMP280;31129;44.810;10.334;2023-07-24T05:18:45;100101.16;;;24.58
45393;BMP280;31129;44.810;10.334;2023-07-24T05:21:11;100161.31;;;24.42
45393;BMP280;31129;44.810;10.334;2023-07-24T05:23:36;100178.91;;;24.25
45393;BMP280;31129;44.810;10.334;2023-07-24T05:26:03;100216.72;;;24.46
45393;BMP280;31129;44.810;10.334;2023-07-24T05:28:30;100269.81;;;24.28
45393;BMP280;31129;44.810;10.334;2023-07-24T05:30:59;100355.63;;;24.03
45393;BMP280;31129;44.810;10.334;2023-07-24T05:33:25;100444.09;;;23.85
45393;BMP280;31129;44.810;10.334;2023-07-24T05:35:50;100468.78;;;23.89
45393;BMP280;31129;44.810;10.334;2023-07-24T05:38:16;100437.53;;;23.90
45393;BMP280;31129;44.810;10.334;2023-07-24T05:40:41;100463.94;;;24.31
45393;BMP280;31129;44.810;10.334;2023-07-24T05:43:07;100444.47;;;24.41
45393;BMP280;31129;44.810;10.334;2023-07-24T05:45:32;100412.66;;;24.71
45393;BMP280;31129;44.810;10.334;2023-07-24T05:47:57;100405.75;;;24.72
45393;BMP280;31129;44.810;10.334;2023-07-24T05:50:23;100404.13;;;24.69
45393;BMP280;31129;44.810;10.334;2023-07-24T05:52:48;100413.19;;;24.86
45393;BMP280;31129;44.810;10.334;2023-07-24T05:55:14;100425.63;;;24.76
45393;BMP280;31129;44.810;10.334;2023-07-24T05:57:39;100431.44;;;24.61
45393;BMP280;31129;44.810;10.334;2023-07-24T06:00:05;100410.50;;;24.79
45393;BMP280;31129;44.810;10.334;2023-07-24T06:02:36;100431.06;;;25.01
45393;BMP280;31129;44.810;10.334;2023-07-24T06:05:02;100466.91;;;25.21
45393;BMP280;31129;44.810;10.334;2023-07-24T06:07:27;100492.63;;;25.47
45393;BMP280;31129;44.810;10.334;2023-07-24T06:09:53;100519.59;;;25.61
45393;BMP280;31129;44.810;10.334;2023-07-24T06:12:18;100582.72;;;25.11
45393;BMP280;31129;44.810;10.334;2023-07-24T06:14:43;100576.22;;;24.57
45393;BMP280;31129;44.810;10.334;2023-07-24T06:17:09;100536.97;;;24.72
45393;BMP280;31129;44.810;10.334;2023-07-24T06:19:34;100480.72;;;25.19
45393;BMP280;31129;44.810;10.334;2023-07-24T06:22:00;100405.81;;;25.45
45393;BMP280;31129;44.810;10.334;2023-07-24T06:24:25;100334.72;;;25.28
45393;BMP280;31129;44.810;10.334;2023-07-24T06:26:50;100331.38;;;25.03
45393;BMP280;31129;44.810;10.334;2023-07-24T06:29:16;100307.97;;;25.25
45393;BMP280;31129;44.810;10.334;2023-07-24T06:31:41;100282.25;;;25.37
45393;BMP280;31129;44.810;10.334;2023-07-24T06:34:07;100250.47;;;25.51
45393;BMP280;31129;44.810;10.334;2023-07-24T06:36:33;100189.56;;;25.30
45393;BMP280;31129;44.810;10.334;2023-07-24T06:38:58;100188.84;;;25.40
45393;BMP280;31129;44.810;10.334;2023-07-24T06:41:24;100185.03;;;25.25
45393;BMP280;31129;44.810;10.334;2023-07-24T06:43:50;100188.09;;;25.49
45393;BMP280;31129;44.810;10.334;2023-07-24T06:46:16;100233.69;;;25.32
45393;BMP280;31129;44.810;10.334;2023-07-24T06:48:41;100282.84;;;25.35
45393;BMP280;31129;44.810;10.334;2023-07-24T06:51:07;100311.53;;;25.55
45393;BMP280;31129;44.810;10.334;2023-07-24T06:53:32;100321.25;;;25.73
45393;BMP280;31129;44.810;10.334;2023-07-24T06:55:58;100325.38;;;25.82
45393;BMP280;31129;44.810;10.334;2023-07-24T06:58:23;100326.09;;;25.92
45393;BMP280;31129;44.810;10.334;2023-07-24T07:00:49;100298.53;;;26.07
45393;BMP280;31129;44.810;10.334;2023-07-24T07:03:14;100299.00;;;26.13
45393;BMP280;31129;44.810;10.334;2023-07-24T07:05:39;100300.75;;;26.09
45393;BMP280;31129;44.810;10.334;2023-07-24T07:08:05;100303.13;;;26.12
45393;BMP280;31129;44.810;10.334;2023-07-24T07:10:31;100307.19;;;26.31
45393;BMP280;31129;44.810;10.334;2023-07-24T07:12:57;100314.00;;;26.28
45393;BMP280;31129;44.810;10.334;2023-07-24T07:15:22;100318.00;;;26.05
45393;BMP280;31129;44.810;10.334;2023-07-24T07:17:48;100315.50;;;25.90
45393;BMP280;31129;44.810;10.334;2023-07-24T07:20:13;100330.38;;;25.93
45393;BMP280;31129;44.810;10.334;2023-07-24T07:22:38;100352.00;;;25.92
45393;BMP280;31129;44.810;10.334;2023-07-24T07:25:04;100358.19;;;25.91
45393;BMP280;31129;44.810;10.334;2023-07-24T07:27:30;100340.41;;;25.86
45393;BMP280;31129;44.810;10.334;2023-07-24T07:29:55;100328.16;;;25.91
45393;BMP280;31129;44.810;10.334;2023-07-24T07:32:21;100319.94;;;25.93
45393;BMP280;31129;44.810;10.334;2023-07-24T07:34:46;100324.28;;;26.25
45393;BMP280;31129;44.810;10.334;2023-07-24T07:37:11;100307.22;;;26.21
45393;BMP280;31129;44.810;10.334;2023-07-24T07:39:37;100312.25;;;26.63
45393;BMP280;31129;44.810;10.334;2023-07-24T07:42:02;100313.16;;;26.87
45393;BMP280;31129;44.810;10.334;2023-07-24T07:44:28;100308.69;;;26.72
45393;BMP280;31129;44.810;10.334;2023-07-24T07:46:53;100319.19;;;26.93
45393;BMP280;31129;44.810;10.334;2023-07-24T07:49:19;100325.19;;;26.99
45393;BMP280;31129;44.810;10.334;2023-07-24T07:51:44;100330.75;;;27.08
45393;BMP280;31129;44.810;10.334;2023-07-24T07:54:10;100334.97;;;26.98
45393;BMP280;31129;44.810;10.334;2023-07-24T07:56:35;100335.75;;;27.20
45393;BMP280;31129;44.810;10.334;2023-07-24T07:59:01;100325.56;;;27.14
45393;BMP280;31129;44.810;10.334;2023-07-24T08:01:26;100328.50;;;27.16
45393;BMP280;31129;44.810;10.334;2023-07-24T08:03:52;100330.41;;;27.14
45393;BMP280;31129;44.810;10.334;2023-07-24T08:06:17;100331.44;;;27.40
45393;BMP280;31129;44.810;10.334;2023-07-24T08:08:43;100332.13;;;27.29
45393;BMP280;31129;44.810;10.334;2023-07-24T08:11:08;100332.72;;;27.27
45393;BMP280;31129;44.810;10.334;2023-07-24T08:13:34;100309.69;;;27.29
45393;BMP280;31129;44.810;10.334;2023-07-24T08:15:59;100310.97;;;27.37
45393;BMP280;31129;44.810;10.334;2023-07-24T08:18:26;100325.50;;;27.24
45393;BMP280;31129;44.810;10.334;2023-07-24T08:20:52;100323.19;;;27.42
45393;BMP280;31129;44.810;10.334;2023-07-24T08:23:18;100341.25;;;27.29
45393;BMP280;31129;44.810;10.334;2023-07-24T08:25:54;100360.28;;;27.52
45393;BMP280;31129;44.810;10.334;2023-07-24T08:28:20;100383.69;;;27.66
45393;BMP280;31129;44.810;10.334;2023-07-24T08:30:46;100392.00;;;27.76
45393;BMP280;31129;44.810;10.334;2023-07-24T08:33:12;100405.25;;;27.33
45393;BMP280;31129;44.810;10.334;2023-07-24T08:35:38;100409.25;;;27.30
45393;BMP280;31129;44.810;10.334;2023-07-24T08:38:03;100405.38;;;27.65
45393;BMP280;31129;44.810;10.334;2023-07-24T08:40:29;100403.69;;;27.72
45393;BMP280;31129;44.810;10.334;2023-07-24T08:42:54;100384.94;;;27.53
45393;BMP280;31129;44.810;10.334;2023-07-24T08:45:20;100367.91;;;27.40
45393;BMP280;31129;44.810;10.334;2023-07-24T08:47:46;100347.28;;;27.56
45393;BMP280;31129;44.810;10.334;2023-07-24T08:50:12;100327.75;;;27.58
45393;BMP280;31129;44.810;10.334;2023-07-24T08:52:40;100311.63;;;27.47
45393;BMP280;31129;44.810;10.334;2023-07-24T08:55:08;100331.50;;;27.51
45393;BMP280;31129;44.810;10.334;2023-07-24T08:57:34;100355.47;;;27.43
45393;BMP280;31129;44.810;10.334;2023-07-24T09:00:00;100387.31;;;27.26
45393;BMP280;31129;44.810;10.334;2023-07-24T09:02:33;100441.91;;;26.94
45393;BMP280;31129;44.810;10.334;2023-07-24T09:05:00;100485.56;;;26.88
45393;BMP280;31129;44.810;10.334;2023-07-24T09:07:25;100485.56;;;26.88
45393;BMP280;31129;44.810;10.334;2023-07-24T09:09:51;100485.53;;;26.97
45393;BMP280;31129;44.810;10.334;2023-07-24T09:12:16;100494.19;;;27.11
45393;BMP280;31129;44.810;10.334;2023-07-24T09:14:42;100531.22;;;27.00
45393;BMP280;31129;44.810;10.334;2023-07-24T09:17:09;100517.56;;;26.85
45393;BMP280;31129;44.810;10.334;2023-07-24T09:19:35;100480.06;;;26.99
45393;BMP280;31129;44.810;10.334;2023-07-24T09:22:12;100456.59;;;27.04
45393;BMP280;31129;44.810;10.334;2023-07-24T09:24:55;100446.41;;;27.09
45393;BMP280;31129;44.810;10.334;2023-07-24T09:27:27;100455.69;;;27.02
45393;BMP280;31129;44.810;10.334;2023-07-24T09:29:52;100476.84;;;26.93
45393;BMP280;31129;44.810;10.334;2023-07-24T09:32:22;100461.22;;;26.81
45393;BMP280;31129;44.810;10.334;2023-07-24T09:34:48;100380.94;;;27.04
45393;BMP280;31129;44.810;10.334;2023-07-24T09:37:42;100191.75;;;27.15
45393;BMP280;31129;44.810;10.334;2023-07-24T09:40:09;100184.53;;;27.33
45393;BMP280;31129;44.810;10.334;2023-07-24T09:42:36;100315.53;;;27.11
45393;BMP280;31129;44.810;10.334;2023-07-24T09:45:03;100257.97;;;27.20
45393;BMP280;31129;44.810;10.334;2023-07-24T09:47:28;100265.44;;;27.27
45393;BMP280;31129;44.810;10.334;2023-07-24T09:49:55;100241.16;;;27.20
45393;BMP280;31129;44.810;10.334;2023-07-24T09:52:21;100300.00;;;26.99
45393;BMP280;31129;44.810;10.334;2023-07-24T09:57:18;100344.84;;;27.62
45393;BMP280;31129;44.810;10.334;2023-07-24T09:59:45;100329.19;;;28.13
45393;BMP280;31129;44.810;10.334;2023-07-24T10:02:12;100330.59;;;28.59
45393;BMP280;31129;44.810;10.334;2023-07-24T10:04:38;100351.13;;;28.73
45393;BMP280;31129;44.810;10.334;2023-07-24T10:07:06;100347.44;;;28.59
45393;BMP280;31129;44.810;10.334;2023-07-24T10:09:33;100335.22;;;28.78
45393;BMP280;31129;44.810;10.334;2023-07-24T10:11:58;100331.81;;;29.02
45393;BMP280;31129;44.810;10.334;2023-07-24T10:14:25;100337.44;;;28.91
45393;BMP280;31129;44.810;10.334;2023-07-24T10:16:51;100346.38;;;28.76
45393;BMP280;31129;44.810;10.334;2023-07-24T10:19:21;100337.66;;;28.48
45393;BMP280;31129;44.810;10.334;2023-07-24T10:21:47;100332.16;;;28.27
45393;BMP280;31129;44.810;10.334;2023-07-24T10:24:14;100294.06;;;28.36
45393;BMP280;31129;44.810;10.334;2023-07-24T10:26:40;100232.53;;;28.51
45393;BMP280;31129;44.810;10.334;2023-07-24T10:29:06;100189.88;;;28.67
45393;BMP280;31129;44.810;10.334;2023-07-24T10:31:32;100163.41;;;28.83
45393;BMP280;31129;44.810;10.334;2023-07-24T10:34:07;100125.63;;;29.23
45393;BMP280;31129;44.810;10.334;2023-07-24T10:36:34;100139.84;;;29.52
45393;BMP280;31129;44.810;10.334;2023-07-24T10:39:00;100146.03;;;29.63
45393;BMP280;31129;44.810;10.334;2023-07-24T10:41:37;100146.75;;;29.63
45393;BMP280;31129;44.810;10.334;2023-07-24T10:44:03;100146.97;;;29.67
45393;BMP280;31129;44.810;10.334;2023-07-24T10:46:39;100146.03;;;29.90
45393;BMP280;31129;44.810;10.334;2023-07-24T10:49:05;100153.97;;;29.80
45393;BMP280;31129;44.810;10.334;2023-07-24T10:51:30;100160.59;;;29.59
45393;BMP280;31129;44.810;10.334;2023-07-24T10:53:59;100180.81;;;29.55
45393;BMP280;31129;44.810;10.334;2023-07-24T10:56:25;100194.16;;;29.55
45393;BMP280;31129;44.810;10.334;2023-07-24T10:58:50;100203.38;;;29.44
45393;BMP280;31129;44.810;10.334;2023-07-24T11:01:17;100205.88;;;29.38
45393;BMP280;31129;44.810;10.334;2023-07-24T11:03:42;100217.69;;;28.86
45393;BMP280;31129;44.810;10.334;2023-07-24T11:06:16;100219.72;;;28.97
45393;BMP280;31129;44.810;10.334;2023-07-24T11:08:42;100226.88;;;29.11
45393;BMP280;31129;44.810;10.334;2023-07-24T11:11:08;100241.69;;;29.12
45393;BMP280;31129;44.810;10.334;2023-07-24T11:13:34;100254.84;;;29.21
45393;BMP280;31129;44.810;10.334;2023-07-24T11:16:07;100265.72;;;29.27
45393;BMP280;31129;44.810;10.334;2023-07-24T11:18:32;100283.28;;;29.27
45393;BMP280;31129;44.810;10.334;2023-07-24T11:20:58;100294.00;;;29.42
45393;BMP280;31129;44.810;10.334;2023-07-24T11:23:24;100310.84;;;29.54
45393;BMP280;31129;44.810;10.334;2023-07-24T11:25:51;100306.28;;;29.35
45393;BMP280;31129;44.810;10.334;2023-07-24T11:28:17;100312.88;;;29.65
45393;BMP280;31129;44.810;10.334;2023-07-24T11:30:42;100304.22;;;30.00
45393;BMP280;31129;44.810;10.334;2023-07-24T11:33:12;100284.31;;;29.96
45393;BMP280;31129;44.810;10.334;2023-07-24T11:35:39;100287.97;;;29.98
45393;BMP280;31129;44.810;10.334;2023-07-24T11:38:05;100281.44;;;30.21
45393;BMP280;31129;44.810;10.334;2023-07-24T11:40:36;100279.94;;;30.20
45393;BMP280;31129;44.810;10.334;2023-07-24T11:43:03;100268.56;;;30.04
45393;BMP280;31129;44.810;10.334;2023-07-24T11:45:29;100243.34;;;29.93
45393;BMP280;31129;44.810;10.334;2023-07-24T11:47:55;100222.91;;;29.92
45393;BMP280;31129;44.810;10.334;2023-07-24T11:50:22;100218.84;;;30.50
45393;BMP280;31129;44.810;10.334;2023-07-24T11:52:50;100208.94;;;30.92
45393;BMP280;31129;44.810;10.334;2023-07-24T11:55:30;100195.44;;;30.90
45393;BMP280;31129;44.810;10.334;2023-07-24T11:57:58;100191.03;;;30.72
45393;BMP280;31129;44.810;10.334;2023-07-24T12:00:24;100170.25;;;30.65
45393;BMP280;31129;44.810;10.334;2023-07-24T12:02:50;100139.13;;;30.77
45393;BMP280;31129;44.810;10.334;2023-07-24T12:05:16;100116.41;;;30.88
45393;BMP280;31129;44.810;10.334;2023-07-24T12:07:43;100094.72;;;31.22
45393;BMP280;31129;44.810;10.334;2023-07-24T12:10:09;100071.34;;;31.20
45393;BMP280;31129;44.810;10.334;2023-07-24T12:12:45;100065.22;;;31.25
45393;BMP280;31129;44.810;10.334;2023-07-24T12:15:12;100067.84;;;31.52
45393;BMP280;31129;44.810;10.334;2023-07-24T12:17:38;100085.59;;;31.24
45393;BMP280;31129;44.810;10.334;2023-07-24T12:20:04;100082.78;;;31.39
45393;BMP280;31129;44.810;10.334;2023-07-24T12:22:31;100072.56;;;31.63
45393;BMP280;31129;44.810;10.334;2023-07-24T12:24:57;100062.31;;;31.72
45393;BMP280;31129;44.810;10.334;2023-07-24T12:27:23;100060.31;;;31.90
45393;BMP280;31129;44.810;10.334;2023-07-24T12:29:49;100070.28;;;31.76
45393;BMP280;31129;44.810;10.334;2023-07-24T12:32:15;100072.28;;;32.06
45393;BMP280;31129;44.810;10.334;2023-07-24T12:34:40;100064.25;;;32.18
45393;BMP280;31129;44.810;10.334;2023-07-24T12:37:06;100080.19;;;32.28
45393;BMP280;31129;44.810;10.334;2023-07-24T12:39:32;100106.16;;;32.06
45393;BMP280;31129;44.810;10.334;2023-07-24T12:41:57;100114.31;;;32.16
45393;BMP280;31129;44.810;10.334;2023-07-24T12:44:22;100113.84;;;32.22
45393;BMP280;31129;44.810;10.334;2023-07-24T12:46:48;100105.53;;;32.26
45393;BMP280;31129;44.810;10.334;2023-07-24T12:49:13;100093.22;;;32.01
45393;BMP280;31129;44.810;10.334;2023-07-24T12:51:39;100094.47;;;32.32
45393;BMP280;31129;44.810;10.334;2023-07-24T12:54:04;100098.56;;;32.64
45393;BMP280;31129;44.810;10.334;2023-07-24T12:56:30;100096.28;;;32.96
45393;BMP280;31129;44.810;10.334;2023-07-24T12:58:55;100093.28;;;32.92
45393;BMP280;31129;44.810;10.334;2023-07-24T13:01:21;100089.06;;;32.93
45393;BMP280;31129;44.810;10.334;2023-07-24T13:03:46;100074.19;;;32.72
45393;BMP280;31129;44.810;10.334;2023-07-24T13:06:11;100079.34;;;32.60
45393;BMP280;31129;44.810;10.334;2023-07-24T13:08:37;100107.31;;;32.70
45393;BMP280;31129;44.810;10.334;2023-07-24T13:11:02;100108.31;;;32.79
45393;BMP280;31129;44.810;10.334;2023-07-24T13:13:28;100090.25;;;32.86
45393;BMP280;31129;44.810;10.334;2023-07-24T13:15:53;100070.66;;;32.92
45393;BMP280;31129;44.810;10.334;2023-07-24T13:18:19;100071.13;;;33.23
45393;BMP280;31129;44.810;10.334;2023-07-24T13:20:45;100051.22;;;33.02
45393;BMP280;31129;44.810;10.334;2023-07-24T13:23:11;100026.38;;;32.98
45393;BMP280;31129;44.810;10.334;2023-07-24T13:25:36;100030.84;;;33.05
45393;BMP280;31129;44.810;10.334;2023-07-24T13:28:02;100091.50;;;33.59
45393;BMP280;31129;44.810;10.334;2023-07-24T13:30:27;100111.91;;;33.56
45393;BMP280;31129;44.810;10.334;2023-07-24T13:32:52;100092.97;;;33.21
45393;BMP280;31129;44.810;10.334;2023-07-24T13:35:18;100090.19;;;33.23
45393;BMP280;31129;44.810;10.334;2023-07-24T13:37:43;100067.81;;;33.92
45393;BMP280;31129;44.810;10.334;2023-07-24T13:40:09;100062.34;;;33.76
45393;BMP280;31129;44.810;10.334;2023-07-24T13:42:34;100049.69;;;34.01
45393;BMP280;31129;44.810;10.334;2023-07-24T13:45:00;100024.47;;;33.66
45393;BMP280;31129;44.810;10.334;2023-07-24T13:47:25;99988.81;;;33.37
45393;BMP280;31129;44.810;10.334;2023-07-24T13:49:51;99977.97;;;33.30